Terminal Aerodrome Forecast
Issued by NWS Chicago, IL

Home | Current Version | Previous Version | Text Only | Print | Product List | Glossary On
Versions: 1 2 3 4 5 6 7 8 9 10 11 12 13 14 15 16 17 18 19 20 21 22 23 24 25 26 27 28 29 30 31 32
000
FTUS43 KLOT 010700 AAA
TAFRFD
TAF AMD
KRFD 010746Z 0108/0206 00000KT 5SM BR BKN008 OVC025
     FM011000 VRB03KT 5SM BR OVC006
     FM011500 27006KT 6SM BR SCT007 OVC020
     FM011700 25008KT P6SM BKN030
     FM020400 28009KT P6SM SKC=

USA.gov is the U.S. government's official web portal to all federal, state and local government web resources and services.